Airfield :







YOU CAN JOIN US ON...

 
LOGIN :

Register | Disclaimer

   EN    FR    IT 

 









Legend :    VFR   Marginal VFR   IFR   Intensive IFR   Very Intensive IFR
Visi :
Ceiling :
>= 8 km
>= 3000ft
5 to 8 km
1000 to 3000 ft
1500m to 5 km
500 to 1000 ft
800 to 1500m
200 to 500 ft
< 800m
< 200 ft
Symbols :   Thunderstorms  Fog  Heavy snow  Heavy precipitations  Wind > 20 kt






- Airport Elevation : 121 ft
- IATA code : YBX


CYBX - Lourdes De Blanc Sablon

CURRENT METAR :
  • 180500Z 36013G21KT 15SM SCT110 M16/M23 A3006 RMK AC3 SLP185

EXPIRED METARs :
  • 180400Z 36016G22KT 15SM BKN100 M16/M22 A3004 RMK AC5 SLP177
  • 180300Z 01016G25KT 15SM OVC110 M14/M21 A3003 RMK AC8 SLP173

TAF TAF CYBX
Valid from the 18 at 02:00 until the 18 at 14:00 UTC


180138Z 1802/1814 01012G22KT P6SM OVC050
TEMPO 1802/1805 5SM -SN
FM180500 34010G20KT P6SM FEW050
FM180800 32008KT P6SM SKC
BECMG 1812/1814 27012KT RMK NXT FCST BY 180800Z



MET'MAP, your aeronautical weather chart ! - Copyright ORBIFLY December 2007 - Disclaimer

ORBIFLY MET'MAP TEAM :

Programming & Development : Alexandra Zaïnal
Concept & original design : Baudouin d'Aumeries
Assistance for programming : Marc-Olivier Méhu
Technical & hardware support : Manuel Goepfert

Contact : metmap@orbifly.com




SOURCES & CREDITS :

   NOAA